createdAt,value
2019-02-19T00:02:16.382Z,1.00
2019-02-19T00:08:00.125Z,1.00
2019-02-19T00:10:41.277Z,1.00
2019-02-19T00:13:11.192Z,1.00
2019-02-19T00:16:00.623Z,1.00
2019-02-19T00:18:49.473Z,1.00
2019-02-19T00:21:38.352Z,1.00
2019-02-19T00:24:27.156Z,1.00
2019-02-19T00:27:15.718Z,1.00
2019-02-19T00:30:04.591Z,1.00
2019-02-19T00:32:54.161Z,99.90
2019-02-19T00:35:42.750Z,99.90
2019-02-19T00:38:12.297Z,91.20
2019-02-19T00:40:42.663Z,11.90
2019-02-19T00:43:31.874Z,20.70
2019-02-19T00:46:01.421Z,93.90
2019-02-19T00:48:49.953Z,99.90
2019-02-19T00:51:38.415Z,99.90
2019-02-19T00:54:27.213Z,99.90
2019-02-19T00:57:08.629Z,99.90
2019-02-19T00:59:49.913Z,99.90
2019-02-19T01:02:31.204Z,99.90
2019-02-19T01:08:45.538Z,99.90
2019-02-19T01:14:26.108Z,99.90
2019-02-19T01:17:14.663Z,99.90
2019-02-19T01:19:44.530Z,99.90
2019-02-19T01:22:14.526Z,99.90
2019-02-19T01:25:03.057Z,1.00
2019-02-19T01:27:51.668Z,1.00
2019-02-19T01:30:40.144Z,1.00
2019-02-19T01:33:28.650Z,1.00
2019-02-19T01:36:17.420Z,1.00
2019-02-19T01:39:09.917Z,1.00
2019-02-19T01:42:01.727Z,1.00
2019-02-19T01:44:50.695Z,1.00
2019-02-19T01:47:58.981Z,1.00
2019-02-19T01:56:07.095Z,99.90
2019-02-19T01:58:49.701Z,1.00
2019-02-19T02:01:34.220Z,1.00
2019-02-19T02:04:17.510Z,1.00
2019-02-19T02:06:47.125Z,1.00
2019-02-19T02:09:35.711Z,1.00
2019-02-19T02:12:24.341Z,1.00
2019-02-19T02:18:01.090Z,1.00
2019-02-19T02:20:50.957Z,1.00
2019-02-19T02:23:20.478Z,1.00
2019-02-19T02:26:09.233Z,1.00
2019-02-19T02:28:58.214Z,1.00
2019-02-19T02:31:46.810Z,1.00
2019-02-19T02:34:16.326Z,1.00
2019-02-19T02:37:09.824Z,1.00
2019-02-19T02:39:58.419Z,1.00
2019-02-19T02:42:47.255Z,1.00
2019-02-19T02:45:35.790Z,99.90
2019-02-19T02:48:24.284Z,1.00
2019-02-19T02:51:13.084Z,1.00
2019-02-19T02:54:01.852Z,99.90
2019-02-19T02:56:50.849Z,99.90
2019-02-19T02:59:20.482Z,99.90
2019-02-19T03:01:49.951Z,99.90
2019-02-19T03:04:40.018Z,99.90
2019-02-19T03:07:28.480Z,99.90
2019-02-19T03:09:58.822Z,99.90
2019-02-19T03:12:29.165Z,99.90
2019-02-19T03:14:58.854Z,99.90
2019-02-19T03:17:47.770Z,99.90
2019-02-19T03:20:36.288Z,99.90
2019-02-19T03:23:24.804Z,99.90
2019-02-19T03:26:13.638Z,99.90
2019-02-19T03:31:39.505Z,99.90
2019-02-19T03:34:28.112Z,99.90
2019-02-19T03:37:16.896Z,99.90
2019-02-19T03:40:07.453Z,99.90
2019-02-19T03:42:56.273Z,99.90
2019-02-19T03:45:37.719Z,99.90
2019-02-19T03:48:19.281Z,99.90
2019-02-19T03:51:00.193Z,99.90
2019-02-19T03:53:41.837Z,99.90
2019-02-19T03:56:23.562Z,99.90
2019-02-19T03:59:05.208Z,99.90
2019-02-19T04:01:46.787Z,99.90
2019-02-19T04:04:29.423Z,99.90
2019-02-19T04:07:10.475Z,99.90
2019-02-19T04:09:51.965Z,99.90
2019-02-19T04:12:33.644Z,1.00
2019-02-19T04:15:14.923Z,1.00
2019-02-19T04:17:56.350Z,1.00
2019-02-19T04:20:38.194Z,1.00
2019-02-19T04:23:07.683Z,1.00
2019-02-19T04:25:37.537Z,1.00
2019-02-19T04:28:26.556Z,1.00
2019-02-19T04:31:15.939Z,1.00
2019-02-19T04:33:57.532Z,1.00
2019-02-19T04:36:27.149Z,1.00
2019-02-19T04:38:57.519Z,1.00
2019-02-19T04:41:46.052Z,1.00
2019-02-19T04:44:27.553Z,1.00
2019-02-19T04:47:08.580Z,1.00
2019-02-19T04:49:50.054Z,1.00
2019-02-19T04:52:30.801Z,1.00
2019-02-19T04:55:11.441Z,1.00
2019-02-19T04:57:52.309Z,1.00
2019-02-19T05:00:33.501Z,1.00
2019-02-19T05:03:16.662Z,1.00
2019-02-19T05:05:58.513Z,1.00
2019-02-19T05:08:40.165Z,1.00
2019-02-19T05:11:22.019Z,1.00
2019-02-19T05:13:52.269Z,1.00
2019-02-19T05:16:41.875Z,1.00
2019-02-19T05:22:00.137Z,1.00
2019-02-19T05:24:49.547Z,1.00
2019-02-19T05:30:46.024Z,1.00
2019-02-19T05:33:34.614Z,1.00
2019-02-19T05:36:23.630Z,1.00
2019-02-19T05:39:12.507Z,1.00
2019-02-19T05:42:02.021Z,1.00
2019-02-19T05:44:43.200Z,1.00
2019-02-19T05:47:24.092Z,1.00
2019-02-19T05:50:05.399Z,1.00
2019-02-19T05:52:46.804Z,1.00
2019-02-19T05:55:28.132Z,1.00
2019-02-19T05:57:57.868Z,1.00
2019-02-19T06:00:46.624Z,1.00
2019-02-19T06:03:36.976Z,1.00
2019-02-19T06:06:07.598Z,1.00
2019-02-19T06:08:37.221Z,1.00
2019-02-19T06:11:08.298Z,1.00
2019-02-19T06:13:56.796Z,1.00
2019-02-19T06:16:45.773Z,1.00
2019-02-19T06:19:34.585Z,1.00
2019-02-19T06:22:24.679Z,1.00
2019-02-19T06:25:14.102Z,1.00
2019-02-19T06:28:03.205Z,99.90
2019-02-19T06:30:52.601Z,17.60
2019-02-19T06:33:42.358Z,1.00
2019-02-19T06:36:31.098Z,99.90
2019-02-19T06:39:19.740Z,99.90
2019-02-19T06:41:49.129Z,99.90
2019-02-19T06:44:37.808Z,1.00
2019-02-19T06:47:19.426Z,99.90
2019-02-19T06:49:50.554Z,99.90
2019-02-19T06:52:21.178Z,99.90
2019-02-19T06:55:00.479Z,1.00
2019-02-19T06:57:47.029Z,99.90
2019-02-19T07:00:17.631Z,1.00
2019-02-19T07:03:26.018Z,99.90
2019-02-19T07:06:16.637Z,99.90
2019-02-19T07:09:27.462Z,99.90
2019-02-19T07:12:26.904Z,1.00
2019-02-19T07:14:56.087Z,1.00
2019-02-19T07:17:28.911Z,99.90
2019-02-19T07:20:26.197Z,99.90
2019-02-19T07:22:56.317Z,1.00
2019-02-19T07:25:26.634Z,99.90
2019-02-19T07:28:17.235Z,99.90
2019-02-19T07:31:06.708Z,99.90
2019-02-19T07:33:37.782Z,1.00
2019-02-19T07:36:26.660Z,99.90
2019-02-19T07:38:59.171Z,1.00
2019-02-19T07:41:42.722Z,1.00
2019-02-19T07:44:00.427Z,99.90
2019-02-19T07:46:41.518Z,99.90
2019-02-19T07:49:23.230Z,99.90
2019-02-19T07:52:04.780Z,99.90
2019-02-19T07:54:46.140Z,99.90
2019-02-19T07:57:16.694Z,99.90
2019-02-19T07:59:46.382Z,99.90
2019-02-19T08:02:16.033Z,99.90
2019-02-19T08:04:45.659Z,99.90
2019-02-19T08:07:15.310Z,99.90
2019-02-19T08:09:44.947Z,45.60
2019-02-19T08:12:14.630Z,1.00
2019-02-19T08:14:44.200Z,1.00
2019-02-19T08:17:13.858Z,1.00
2019-02-19T08:20:03.197Z,1.00
2019-02-19T08:22:51.734Z,1.00
2019-02-19T08:25:40.365Z,1.00
2019-02-19T08:28:28.995Z,1.00
2019-02-19T08:30:58.535Z,1.00
2019-02-19T08:33:47.293Z,1.00
2019-02-19T08:36:35.803Z,1.00
2019-02-19T08:39:25.836Z,1.00
2019-02-19T08:42:14.483Z,1.00
2019-02-19T08:45:12.306Z,1.00
2019-02-19T08:47:53.709Z,1.00
2019-02-19T08:50:34.778Z,1.00
2019-02-19T08:53:16.396Z,1.00
2019-02-19T08:55:58.165Z,1.00
2019-02-19T08:58:39.587Z,1.00
2019-02-19T09:01:09.438Z,1.00
2019-02-19T09:03:59.121Z,99.90
2019-02-19T09:09:57.011Z,1.00
2019-02-19T09:18:21.528Z,1.00
2019-02-19T09:20:51.149Z,1.00
2019-02-19T09:23:40.185Z,1.00
2019-02-19T09:26:29.031Z,1.00
2019-02-19T09:29:17.453Z,1.00
2019-02-19T09:32:05.958Z,99.90
2019-02-19T09:34:54.469Z,99.90
2019-02-19T09:37:43.047Z,1.00
2019-02-19T09:40:33.462Z,80.00
2019-02-19T09:43:21.759Z,1.00
2019-02-19T09:46:10.372Z,1.00
2019-02-19T09:48:58.874Z,1.00
2019-02-19T09:51:47.665Z,99.90
2019-02-19T09:54:36.103Z,1.00
2019-02-19T09:57:24.613Z,29.10
2019-02-19T10:00:13.200Z,99.90
2019-02-19T10:03:01.986Z,99.90
2019-02-19T10:05:50.532Z,99.90
2019-02-19T10:08:39.029Z,1.00
2019-02-19T10:11:27.553Z,99.90
2019-02-19T10:14:16.436Z,1.00
2019-02-19T10:17:05.613Z,99.90
2019-02-19T10:19:54.142Z,99.90
2019-02-19T10:22:42.694Z,99.90
2019-02-19T10:25:32.791Z,99.90
2019-02-19T10:28:22.508Z,1.00
2019-02-19T10:31:11.274Z,1.00
2019-02-19T10:36:28.634Z,99.90
2019-02-19T10:39:17.178Z,99.90
2019-02-19T10:42:05.919Z,58.90
2019-02-19T10:44:54.463Z,99.90
2019-02-19T10:47:35.953Z,99.90
2019-02-19T11:02:02.458Z,1.00
2019-02-19T11:04:43.747Z,15.90
2019-02-19T11:07:25.385Z,99.90
2019-02-19T11:09:57.028Z,99.90
2019-02-19T11:12:26.469Z,1.00
2019-02-19T11:15:29.398Z,99.90
2019-02-19T11:18:10.624Z,1.00
2019-02-19T11:20:52.298Z,1.00
2019-02-19T11:23:33.773Z,99.90
2019-02-19T11:26:14.660Z,99.90
2019-02-19T11:28:57.266Z,4.90
2019-02-19T11:31:39.375Z,1.00
2019-02-19T11:34:20.983Z,99.90
2019-02-19T11:36:51.318Z,21.40
2019-02-19T11:39:23.133Z,99.90
2019-02-19T11:41:52.798Z,99.90
2019-02-19T11:44:22.526Z,99.90
2019-02-19T11:46:52.063Z,1.00
2019-02-19T11:49:21.771Z,1.00
2019-02-19T11:51:51.552Z,1.00
2019-02-19T11:54:21.938Z,1.00
2019-02-19T11:56:51.516Z,81.20
2019-02-19T11:59:21.337Z,54.60
2019-02-19T12:01:50.982Z,1.00
2019-02-19T12:04:39.776Z,99.90
2019-02-19T12:07:28.326Z,1.00
2019-02-19T12:10:17.002Z,1.00
2019-02-19T12:12:46.409Z,1.00
2019-02-19T12:15:35.673Z,99.90
2019-02-19T12:18:16.646Z,99.90
2019-02-19T12:20:58.138Z,1.00
2019-02-19T12:23:39.576Z,1.00
2019-02-19T12:29:23.260Z,1.00
2019-02-19T12:31:52.896Z,99.90
2019-02-19T12:34:41.514Z,99.90
2019-02-19T12:37:30.067Z,99.90
2019-02-19T12:40:18.608Z,99.90
2019-02-19T12:43:07.222Z,99.90
2019-02-19T12:45:55.789Z,99.90
2019-02-19T12:48:44.345Z,99.90
2019-02-19T12:51:13.832Z,99.90
2019-02-19T12:53:43.396Z,1.00
2019-02-19T12:56:12.798Z,99.90
2019-02-19T12:58:42.205Z,1.00
2019-02-19T13:01:11.665Z,76.30
2019-02-19T13:03:41.033Z,67.10
2019-02-19T13:06:10.506Z,99.90
2019-02-19T13:08:59.026Z,99.90
2019-02-19T13:11:47.748Z,90.70
2019-02-19T13:14:36.243Z,99.90
2019-02-19T13:17:17.624Z,99.90
2019-02-19T13:19:59.006Z,13.00
2019-02-19T13:22:40.583Z,68.50
2019-02-19T13:25:22.071Z,99.90
2019-02-19T13:28:03.173Z,99.90
2019-02-19T13:30:43.780Z,99.90
2019-02-19T13:33:25.522Z,99.90
2019-02-19T13:36:06.689Z,99.90
2019-02-19T13:38:47.906Z,99.90
2019-02-19T13:41:28.978Z,6.00
2019-02-19T13:44:10.609Z,32.50
2019-02-19T13:46:52.218Z,73.60
2019-02-19T13:49:33.545Z,1.00
2019-02-19T13:55:00.612Z,1.00
2019-02-19T13:57:42.252Z,1.00
2019-02-19T14:00:25.586Z,1.00
2019-02-19T14:03:07.085Z,1.00
2019-02-19T14:05:48.564Z,43.90
2019-02-19T14:08:29.745Z,1.00
2019-02-19T14:11:10.953Z,1.00
2019-02-19T14:17:09.515Z,1.00
2019-02-19T14:20:01.414Z,1.00
2019-02-19T14:22:56.444Z,1.00
2019-02-19T14:28:53.514Z,1.00
2019-02-19T14:31:54.025Z,1.00
2019-02-19T14:34:53.763Z,1.00
2019-02-19T14:37:53.876Z,1.00
2019-02-19T14:40:54.048Z,1.00
2019-02-19T14:43:54.163Z,1.00
2019-02-19T14:46:48.207Z,1.00
2019-02-19T14:49:37.525Z,1.00
2019-02-19T14:52:26.062Z,1.00
2019-02-19T14:55:14.555Z,1.00
2019-02-19T14:58:03.233Z,1.00
2019-02-19T15:00:51.892Z,1.00
2019-02-19T15:03:40.289Z,1.00
2019-02-19T15:06:48.067Z,1.00
2019-02-19T15:09:55.533Z,1.00
2019-02-19T15:13:02.907Z,11.00
2019-02-19T15:16:10.333Z,1.00
2019-02-19T15:19:19.930Z,16.70
2019-02-19T15:25:43.570Z,1.00
2019-02-19T15:34:25.336Z,1.00
2019-02-19T16:20:27.760Z,1.00
2019-02-19T16:28:57.257Z,1.00
2019-02-19T16:31:38.078Z,1.00
2019-02-19T18:28:36.690Z,1.00
2019-02-19T18:31:07.389Z,1.00
2019-02-19T18:33:55.962Z,1.00
2019-02-19T18:36:25.738Z,1.00
2019-02-19T18:38:57.273Z,7.60
2019-02-19T18:41:46.294Z,1.00
2019-02-19T18:44:35.151Z,1.00
2019-02-19T18:47:04.872Z,1.00
2019-02-19T18:52:28.389Z,1.00
2019-02-19T18:55:09.537Z,1.00
2019-02-19T18:57:39.834Z,1.00
2019-02-19T19:00:11.427Z,1.00
2019-02-19T19:03:01.309Z,1.00
2019-02-19T19:05:52.065Z,35.40
2019-02-19T19:08:45.041Z,99.90
2019-02-19T19:11:16.816Z,1.00
2019-02-19T19:14:07.632Z,1.00
2019-02-19T19:16:38.053Z,1.00
2019-02-19T19:19:07.810Z,1.00
2019-02-19T19:21:37.465Z,1.00
2019-02-19T19:24:07.811Z,1.00
2019-02-19T19:30:17.303Z,1.00
2019-02-19T19:33:06.985Z,31.20
2019-02-19T19:41:46.608Z,99.90
2019-02-19T19:44:31.824Z,99.90
2019-02-19T19:47:21.869Z,99.90
2019-02-19T19:50:12.153Z,99.90
2019-02-19T19:52:43.030Z,99.90
2019-02-19T19:55:39.746Z,99.90
2019-02-19T21:17:32.310Z,99.90
2019-02-19T21:55:16.430Z,99.90
2019-02-19T21:57:59.830Z,99.90
2019-02-19T22:03:44.465Z,99.90
2019-02-19T22:06:35.201Z,99.90
2019-02-19T22:09:43.777Z,99.90
2019-02-19T22:12:22.307Z,99.90
2019-02-19T22:15:26.337Z,99.90
2019-02-19T22:21:53.053Z,99.90
2019-02-19T22:24:49.230Z,99.90
2019-02-19T22:27:39.091Z,99.90
2019-02-19T22:30:29.903Z,99.90
2019-02-19T22:36:16.989Z,99.90
2019-02-19T22:42:47.368Z,99.90
2019-02-19T22:52:57.825Z,99.90
2019-02-19T22:59:03.267Z,99.90
2019-02-19T23:05:04.017Z,99.90
2019-02-19T23:10:47.698Z,99.90
2019-02-19T23:13:29.281Z,99.90
2019-02-19T23:16:25.101Z,99.90
2019-02-19T23:19:00.678Z,99.90
2019-02-19T23:21:45.482Z,99.90
2019-02-19T23:24:34.004Z,99.90
2019-02-19T23:27:23.850Z,99.90
2019-02-19T23:30:13.457Z,99.90
2019-02-19T23:33:14.610Z,99.90
2019-02-19T23:35:38.906Z,99.90
2019-02-19T23:38:09.077Z,99.90
2019-02-19T23:40:58.435Z,99.90
2019-02-19T23:43:47.086Z,99.90
2019-02-19T23:46:17.217Z,99.90
2019-02-19T23:49:06.945Z,99.90
2019-02-19T23:54:33.642Z,99.90
2019-02-19T23:57:04.647Z,99.90
2019-02-19T23:59:34.592Z,99.90
